Impacts TAF Board
For situational awareness. Not to be used for flight planning purposes.
IDs:

KMSS - Massena Intl, NY, US

Issued at 2320 UTC 28 Nov 2020
Updated at 0214 UTC 29 Nov 2020
Potential Impact None Slight Moderate High
Time0153Z 29/03Z 29/04Z 29/05Z 29/06Z 29/07Z 29/08Z 29/09Z 29/10Z 29/11Z 29/12Z 29/13Z 29/14Z 29/15Z>>
Type OBS PRVL PRVL PRVL PRVL PRVL PRVL PRVL PRVL PRVL PRVL PRVL PRVL PRVL
VIS 10 >6 >6 >6 >6 >6 >6 >6 >6 >6 >6 >6 >6 >6
CIG 100 60 60 60 60 60 60 60 60 60 -- -- -- --
Cover BKN OVC OVC OVC OVC OVC OVC OVC OVC OVC SCT SCT SCT SCT
FltCat VFR VFR VFR VFR VFR VFR VFR VFR VFR VFR VFR VFR VFR VFR
WX -- -- -- -- -- -- -- -- -- -- -- -- -- --
WDir 230 240 240 240 240 240 240 240 240 240 220 220 220 220
WSpd 6 7 7 7 7 7 7 7 7 7 5 5 5 5
WGst -- -- -- -- -- -- -- -- -- -- -- -- -- --
R05/23
XWnd 2 3 3 3 3 3 3 3 3 3 1 1 1 1
HWnd -6 -6 -6 -6 -6 -6 -6 -6 -6 -6 -5 -5 -5 -5
R09/27
XWnd -3 -2 -2 -2 -2 -2 -2 -2 -2 -2 -3 -3 -3 -3
HWnd -5 -7 -7 -7 -7 -7 -7 -7 -7 -7 -4 -4 -4 -4
Raw TAF
KMSS 282320Z 2900/2924 24007KT P6SM OVC060
  FM291200 22005KT P6SM SCT025 SCT200
  FM291800 21008KT P6SM SCT035 SCT200


Raw METAR
KMSS 290153Z AUTO 23006KT 10SM BKN100 04/M01 A2995 RMK AO2 SLP147 T00441011
KMSS 290053Z AUTO 21009KT 10SM BKN080 OVC095 04/M01 A2996 RMK AO2 SLP148 T00441011
KMSS 282353Z AUTO 22007KT 10SM OVC044 04/M01 A2996 RMK AO2 SLP151 60001 T00441011 10072 20044 51007

METAR Board
Radar Display
Forecast Discussion
For situational awareness. Not to be used for flight planning purposes.